Terminal Aerodrome Forecast
Issued by NWS Cleveland, OH

Current Version | Previous Version | Text Only | Print | Product List | Glossary On
Versions: 1 2 3 4 5 6 7 8 9 10 11 12 13 14 15 16 17 18 19 20 21 22
657
FTUS41 KCLE 261730
TAFCAK
TAF
KCAK 261730Z 2618/2718 21012G18KT P6SM SCT035
     FM270600 21007KT P6SM SCT040 OVC100
     FM271400 20007KT P6SM VCSH OVC040=

USA.gov is the U.S. government's official web portal to all federal, state and local government web resources and services.